Hlavní strana
METAR-TAF:

METAR-TAF

Letiště :

Letiště Atény

Athény, Řecko

zeměpisná šířka: 37-56N, zeměpisná délka: 023-56E, výška: 94 m

Aktuální stav počasí

Zpráva byla vytvořena před 25 minutami, v 08:20 UTC
Severoseverovýchodní vítr 19 kt
Teplota 25°C
Vlhkost vzduchu 50%
Tlak 1018 hPa
Viditelnost 10 km a více
Skoro jasno ve výšce 4000 ft

METAR: LGAV 200820Z 02019KT 9999 FEW040 25/14 Q1018 NOSIG

Čas: 11:45 (08:45 UTC)

Předpověď počasí

Zpráva byla vytvořena před 3 hodinami a 45 minutami, v 05:00 UTC
Předpověď platná od 20 v 06 UTC do 21 v 06 UTC
Severní vítr 15 kt s nárazy do 25 kt
Viditelnost 10 km a více
Skoro jasno ve výšce 2500 ft
Změna
od 20 v 14 UTC do 20 v 16 UTC
Severoseverozápadní vítr 16 kt

TAF: LGAV 200500Z 2006/2106 36015G25KT 9999 FEW025 BECMG 2014/2016 34016KT

Stav a předpovědi počasí z více než 4 000 letišť (zprávy METAR a TAF).

Červené a žluté tečky na mapě představují dostupné meteorologické stanice.

Když kurzor umístíte na tečku, zobrazí se název stanice.

Pak kliknutím zobrazíte stav a předpověď počasí.

Chcete-li změnit mapu, kliknutím na zelené tlačítko se znaménkem +mapu přiblížíte, kliknutím na zelené tlačítko se znaménkem – mapu oddálíte a kliknutím na zelené šipky přejdete na sousední mapy.


METAR-TAF: